createdAt,value
2017-12-02T00:02:20.826Z,29.83
2017-12-02T00:04:47.131Z,29.80
2017-12-02T00:07:13.568Z,29.40
2017-12-02T00:09:40.571Z,29.90
2017-12-02T00:12:06.919Z,27.70
2017-12-02T00:14:33.191Z,30.60
2017-12-02T00:16:59.451Z,29.13
2017-12-02T00:19:25.704Z,28.57
2017-12-02T00:21:52.014Z,28.33
2017-12-02T00:24:18.272Z,28.33
2017-12-02T00:26:44.650Z,27.93
2017-12-02T00:29:10.943Z,29.60
2017-12-02T00:31:37.204Z,29.10
2017-12-02T00:34:03.473Z,31.53
2017-12-02T00:36:29.703Z,29.07
2017-12-02T00:38:56.006Z,29.00
2017-12-02T00:41:22.295Z,30.73
2017-12-02T00:43:48.532Z,30.37
2017-12-02T00:46:15.549Z,29.63
2017-12-02T00:48:41.779Z,29.20
2017-12-02T00:51:08.034Z,29.03
2017-12-02T00:53:35.074Z,30.03
2017-12-02T00:56:01.357Z,29.10
2017-12-02T00:58:27.651Z,30.77
2017-12-02T01:00:53.898Z,27.50
2017-12-02T01:03:20.142Z,29.07
2017-12-02T01:05:46.438Z,26.67
2017-12-02T01:08:12.683Z,27.40
2017-12-02T01:10:38.981Z,27.60
2017-12-02T01:13:05.933Z,28.80
2017-12-02T01:15:32.153Z,28.77
2017-12-02T01:17:59.167Z,27.60
2017-12-02T01:20:25.402Z,26.50
2017-12-02T01:22:51.653Z,25.30
2017-12-02T01:25:18.651Z,25.83
2017-12-02T01:27:44.881Z,27.93
2017-12-02T01:30:11.137Z,28.87
2017-12-02T01:32:37.385Z,25.33
2017-12-02T01:35:04.387Z,27.90
2017-12-02T01:37:30.605Z,26.80
2017-12-02T01:39:56.872Z,25.17
2017-12-02T01:42:23.921Z,26.90
2017-12-02T01:44:50.227Z,25.93
2017-12-02T01:47:16.485Z,27.67
2017-12-02T01:49:43.483Z,28.57
2017-12-02T01:52:09.725Z,26.43
2017-12-02T01:54:35.986Z,26.93
2017-12-02T01:57:02.203Z,24.77
2017-12-02T01:59:28.483Z,25.70
2017-12-02T02:01:54.718Z,26.10
2017-12-02T02:04:20.975Z,27.13
2017-12-02T02:06:47.349Z,27.73
2017-12-02T02:09:14.310Z,23.73
2017-12-02T02:11:40.572Z,26.40
2017-12-02T02:14:06.805Z,24.93
2017-12-02T02:16:33.016Z,25.07
2017-12-02T02:18:59.377Z,25.50
2017-12-02T02:21:25.614Z,25.60
2017-12-02T02:23:53.060Z,24.97
2017-12-02T02:26:19.320Z,23.87
2017-12-02T02:28:46.377Z,25.50
2017-12-02T02:31:12.626Z,25.03
2017-12-02T02:33:38.830Z,25.20
2017-12-02T02:36:05.098Z,26.13
2017-12-02T02:38:31.302Z,23.83
2017-12-02T02:40:57.622Z,26.30
2017-12-02T02:43:23.919Z,25.83
2017-12-02T02:45:50.874Z,26.43
2017-12-02T02:48:17.842Z,25.03
2017-12-02T02:50:44.191Z,25.43
2017-12-02T02:53:10.405Z,25.20
2017-12-02T02:55:36.634Z,26.57
2017-12-02T02:58:02.888Z,25.23
2017-12-02T03:00:29.141Z,23.97
2017-12-02T03:02:55.389Z,27.50
2017-12-02T03:05:22.393Z,23.10
2017-12-02T03:07:48.673Z,25.57
2017-12-02T03:10:15.687Z,24.30
2017-12-02T03:12:41.900Z,26.50
2017-12-02T03:15:08.167Z,25.17
2017-12-02T03:17:35.261Z,26.73
2017-12-02T03:20:01.537Z,26.30
2017-12-02T03:22:28.519Z,24.73
2017-12-02T03:24:54.748Z,25.07
2017-12-02T03:27:20.995Z,26.10
2017-12-02T03:29:47.251Z,26.43
2017-12-02T03:32:13.586Z,27.10
2017-12-02T03:34:39.857Z,25.47
2017-12-02T03:37:06.128Z,27.47
2017-12-02T03:39:32.429Z,25.50
2017-12-02T03:41:58.817Z,27.43
2017-12-02T03:44:25.853Z,25.63
2017-12-02T03:46:52.110Z,23.57
2017-12-02T03:49:18.365Z,26.40
2017-12-02T03:51:44.626Z,26.80
2017-12-02T03:54:10.926Z,25.90
2017-12-02T03:56:37.205Z,26.40
2017-12-02T03:59:04.211Z,26.83
2017-12-02T04:01:30.478Z,26.00
2017-12-02T04:03:57.518Z,26.90
2017-12-02T04:06:23.785Z,27.50
2017-12-02T04:08:50.069Z,26.60
2017-12-02T04:11:17.099Z,26.40
2017-12-02T04:13:43.344Z,28.30
2017-12-02T04:16:10.601Z,27.70
2017-12-02T04:18:36.836Z,26.30
2017-12-02T04:21:03.113Z,27.10
2017-12-02T04:23:29.422Z,27.10
2017-12-02T04:25:55.693Z,27.30
2017-12-02T04:28:22.035Z,27.37
2017-12-02T04:30:48.310Z,25.97
2017-12-02T04:33:14.627Z,27.13
2017-12-02T04:35:41.651Z,27.90
2017-12-02T04:38:07.865Z,26.07
2017-12-02T04:40:34.179Z,27.17
2017-12-02T04:43:00.469Z,28.07
2017-12-02T04:45:27.474Z,28.53
2017-12-02T04:47:53.681Z,27.67
2017-12-02T04:50:19.922Z,28.97
2017-12-02T04:52:46.238Z,29.10
2017-12-02T04:55:12.446Z,28.00
2017-12-02T04:57:38.750Z,28.43
2017-12-02T05:00:05.059Z,28.43
2017-12-02T05:02:32.112Z,31.40
2017-12-02T05:04:59.106Z,29.77
2017-12-02T05:07:25.369Z,28.80
2017-12-02T05:09:51.632Z,29.33
2017-12-02T05:12:18.679Z,29.80
2017-12-02T05:14:44.980Z,28.10
2017-12-02T05:17:12.004Z,29.77
2017-12-02T05:19:38.278Z,30.20
2017-12-02T05:22:05.349Z,31.10
2017-12-02T05:24:31.630Z,28.47
2017-12-02T05:26:57.998Z,29.83
2017-12-02T05:29:24.270Z,28.23
2017-12-02T05:31:50.513Z,28.97
2017-12-02T05:34:16.790Z,28.73
2017-12-02T05:36:43.152Z,29.30
2017-12-02T05:39:10.213Z,27.43
2017-12-02T05:41:36.551Z,27.70
2017-12-02T05:44:02.837Z,28.73
2017-12-02T05:46:29.077Z,28.33
2017-12-02T05:48:55.321Z,29.00
2017-12-02T05:51:21.770Z,27.90
2017-12-02T05:53:48.078Z,28.63
2017-12-02T05:56:14.363Z,26.87
2017-12-02T05:58:40.612Z,29.40
2017-12-02T06:01:06.892Z,29.03
2017-12-02T06:03:33.175Z,27.00
2017-12-02T06:05:59.448Z,29.70
2017-12-02T06:08:26.556Z,28.37
2017-12-02T06:10:52.870Z,30.87
2017-12-02T06:13:19.170Z,29.00
2017-12-02T06:15:46.258Z,27.50
2017-12-02T06:18:12.529Z,27.10
2017-12-02T06:20:38.834Z,29.33
2017-12-02T06:23:05.246Z,27.43
2017-12-02T06:25:31.535Z,28.10
2017-12-02T06:27:57.895Z,27.83
2017-12-02T06:30:24.146Z,26.90
2017-12-02T06:32:50.448Z,29.03
2017-12-02T06:35:16.682Z,28.40
2017-12-02T06:37:45.032Z,28.30
2017-12-02T06:40:11.440Z,25.13
2017-12-02T06:42:37.699Z,27.57
2017-12-02T06:45:04.722Z,25.53
2017-12-02T06:47:31.004Z,25.90
2017-12-02T06:49:57.274Z,26.00
2017-12-02T06:52:24.374Z,27.03
2017-12-02T06:54:50.728Z,26.17
2017-12-02T06:57:17.041Z,26.77
2017-12-02T06:59:43.835Z,27.60
2017-12-02T07:02:10.185Z,27.47
2017-12-02T07:04:38.735Z,26.60
2017-12-02T07:07:05.204Z,25.47
2017-12-02T07:09:31.913Z,27.27
2017-12-02T07:11:59.077Z,27.00
2017-12-02T07:14:26.788Z,29.30
2017-12-02T07:16:53.097Z,27.87
2017-12-02T07:19:20.085Z,26.17
2017-12-02T07:21:47.144Z,26.10
2017-12-02T07:24:14.842Z,27.43
2017-12-02T07:26:41.887Z,25.47
2017-12-02T07:29:08.935Z,28.50
2017-12-02T07:31:36.815Z,25.73
2017-12-02T07:34:03.098Z,26.10
2017-12-02T07:36:30.258Z,25.77
2017-12-02T07:38:57.285Z,26.27
2017-12-02T07:41:24.294Z,25.77
2017-12-02T07:43:50.532Z,26.60
2017-12-02T07:46:16.850Z,27.80
2017-12-02T07:48:43.123Z,25.07
2017-12-02T07:51:09.456Z,25.87
2017-12-02T07:53:35.722Z,27.33
2017-12-02T07:56:01.968Z,26.63
2017-12-02T07:58:28.973Z,26.20
2017-12-02T08:00:55.299Z,25.57
2017-12-02T08:03:22.328Z,24.63
2017-12-02T08:05:48.690Z,26.30
2017-12-02T08:08:15.811Z,26.53
2017-12-02T08:10:42.375Z,23.60
2017-12-02T08:13:08.761Z,24.07
2017-12-02T08:15:36.648Z,25.80
2017-12-02T08:18:03.081Z,25.33
2017-12-02T08:20:29.569Z,25.03
2017-12-02T08:22:56.018Z,27.37
2017-12-02T08:25:22.318Z,27.50
2017-12-02T08:27:49.212Z,25.40
2017-12-02T08:30:16.254Z,25.07
2017-12-02T08:32:42.514Z,25.80
2017-12-02T08:35:09.596Z,26.07
2017-12-02T08:37:35.867Z,25.63
2017-12-02T08:40:02.298Z,24.47
2017-12-02T08:42:28.629Z,25.83
2017-12-02T08:44:54.910Z,26.17
2017-12-02T08:47:21.265Z,25.10
2017-12-02T08:49:47.590Z,26.23
2017-12-02T08:52:13.946Z,26.20
2017-12-02T08:54:41.681Z,25.10
2017-12-02T08:57:07.907Z,25.50
2017-12-02T08:59:34.239Z,27.33
2017-12-02T09:02:00.527Z,25.80
2017-12-02T09:04:27.666Z,26.47
2017-12-02T09:06:53.985Z,27.30
2017-12-02T09:09:20.218Z,26.90
2017-12-02T09:11:46.483Z,24.93
2017-12-02T09:14:12.797Z,25.77
2017-12-02T09:16:39.085Z,26.77
2017-12-02T09:19:06.053Z,26.90
2017-12-02T09:21:32.398Z,26.90
2017-12-02T09:23:58.827Z,27.53
2017-12-02T09:26:25.865Z,26.70
2017-12-02T09:28:52.144Z,26.87
2017-12-02T09:31:18.474Z,26.00
2017-12-02T09:33:44.757Z,25.80
2017-12-02T09:36:11.741Z,23.90
2017-12-02T09:38:38.108Z,24.73
2017-12-02T09:41:04.360Z,25.33
2017-12-02T09:43:30.627Z,24.07
2017-12-02T09:45:56.930Z,23.97
2017-12-02T09:48:23.230Z,24.50
2017-12-02T09:50:49.866Z,25.47
2017-12-02T09:53:16.095Z,25.73
2017-12-02T09:55:42.451Z,24.80
2017-12-02T09:58:09.559Z,25.03
2017-12-02T10:00:35.831Z,23.50
2017-12-02T10:03:02.378Z,22.23
2017-12-02T10:05:28.899Z,23.50
2017-12-02T10:07:57.093Z,24.10
2017-12-02T10:10:23.497Z,21.70
2017-12-02T10:12:50.498Z,22.50
2017-12-02T10:15:16.802Z,24.87
2017-12-02T10:17:43.046Z,21.00
2017-12-02T10:20:09.420Z,23.00
2017-12-02T10:22:36.508Z,23.07
2017-12-02T10:25:02.812Z,22.87
2017-12-02T10:27:29.734Z,23.00
2017-12-02T10:29:56.030Z,21.97
2017-12-02T10:32:22.326Z,22.60
2017-12-02T10:34:48.684Z,22.20
2017-12-02T10:37:15.027Z,23.60
2017-12-02T10:39:41.372Z,22.03
2017-12-02T10:42:07.672Z,21.10
2017-12-02T10:44:34.200Z,21.63
2017-12-02T10:47:00.475Z,24.47
2017-12-02T10:49:26.709Z,24.20
2017-12-02T10:51:53.004Z,20.53
2017-12-02T10:54:19.462Z,21.13
2017-12-02T10:56:45.749Z,20.93
2017-12-02T11:01:45.414Z,24.10
2017-12-02T11:04:11.746Z,24.63
2017-12-02T11:06:39.352Z,22.30
2017-12-02T11:09:05.724Z,23.70
2017-12-02T11:11:32.010Z,23.53
2017-12-02T11:13:59.022Z,21.53
2017-12-02T11:16:25.327Z,20.60
2017-12-02T11:18:51.563Z,20.03
2017-12-02T11:21:17.910Z,20.30
2017-12-02T11:23:44.219Z,20.33
2017-12-02T11:26:10.485Z,21.90
2017-12-02T11:28:37.610Z,20.90
2017-12-02T11:31:03.868Z,20.97
2017-12-02T11:33:31.154Z,20.80
2017-12-02T11:35:57.475Z,19.73
2017-12-02T11:38:23.798Z,21.10
2017-12-02T11:40:51.723Z,18.10
2017-12-02T11:43:19.212Z,21.20
2017-12-02T11:45:45.932Z,19.93
2017-12-02T11:48:12.340Z,22.50
2017-12-02T11:50:39.062Z,21.60
2017-12-02T11:53:05.391Z,17.47
2017-12-02T11:55:31.713Z,18.00
2017-12-02T11:57:58.017Z,17.43
2017-12-02T12:00:24.317Z,18.70
2017-12-02T12:02:51.342Z,20.50
2017-12-02T12:05:18.982Z,19.60
2017-12-02T12:07:47.072Z,18.57
2017-12-02T12:10:13.402Z,19.50
2017-12-02T12:12:39.796Z,19.70
2017-12-02T12:15:06.930Z,18.00
2017-12-02T12:17:33.179Z,18.00
2017-12-02T12:19:59.798Z,18.20
2017-12-02T12:22:26.804Z,20.33
2017-12-02T12:24:53.068Z,19.20
2017-12-02T12:27:20.100Z,18.90
2017-12-02T12:29:46.362Z,21.77
2017-12-02T12:32:12.598Z,20.30
2017-12-02T12:34:39.037Z,19.67
2017-12-02T12:37:05.307Z,18.00
2017-12-02T12:39:31.563Z,19.07
2017-12-02T12:41:57.789Z,17.77
2017-12-02T12:44:24.844Z,19.60
2017-12-02T12:46:51.154Z,19.50
2017-12-02T12:49:20.198Z,20.77
2017-12-02T12:51:50.881Z,22.47
2017-12-02T12:54:18.153Z,18.83
2017-12-02T12:56:49.695Z,18.13
2017-12-02T12:59:16.117Z,19.87
2017-12-02T13:01:43.169Z,19.43
2017-12-02T13:04:10.175Z,18.73
2017-12-02T13:06:36.459Z,17.53
2017-12-02T13:09:02.841Z,18.60
2017-12-02T13:11:29.217Z,17.60
2017-12-02T13:13:56.263Z,18.33
2017-12-02T13:16:23.771Z,16.70
2017-12-02T13:18:50.059Z,15.33
2017-12-02T13:21:17.150Z,15.60
2017-12-02T13:23:43.547Z,15.13
2017-12-02T13:26:09.965Z,16.80
2017-12-02T13:28:36.230Z,14.50
2017-12-02T13:31:02.498Z,16.13
2017-12-02T13:33:28.873Z,15.47
2017-12-02T13:35:55.117Z,15.40
2017-12-02T13:38:21.568Z,17.07
2017-12-02T13:40:47.990Z,16.30
2017-12-02T13:43:14.433Z,16.60
2017-12-02T13:45:41.490Z,16.80
2017-12-02T13:48:16.482Z,16.50
2017-12-02T13:50:44.858Z,15.70
2017-12-02T13:53:11.862Z,15.07
2017-12-02T13:55:38.858Z,16.33
2017-12-02T13:58:10.719Z,16.27
2017-12-02T14:00:36.994Z,16.60
2017-12-02T14:03:03.280Z,16.60
2017-12-02T14:05:29.680Z,16.63
2017-12-02T14:10:40.433Z,16.90
2017-12-02T14:13:06.766Z,15.87
2017-12-02T14:15:33.879Z,16.07
2017-12-02T14:18:00.163Z,16.07
2017-12-02T14:20:26.490Z,16.43
2017-12-02T14:22:53.478Z,13.53
2017-12-02T14:25:22.263Z,13.93
2017-12-02T14:27:48.482Z,12.00
2017-12-02T14:30:18.153Z,13.00
2017-12-02T14:32:45.156Z,12.53
2017-12-02T14:35:11.437Z,13.80
2017-12-02T14:37:38.511Z,13.20
2017-12-02T14:40:04.866Z,13.87
2017-12-02T14:42:31.273Z,12.63
2017-12-02T14:44:57.588Z,14.00
2017-12-02T14:47:23.802Z,15.13
2017-12-02T14:49:50.212Z,13.10
2017-12-02T14:52:17.259Z,13.40
2017-12-02T14:54:43.547Z,14.50
2017-12-02T14:57:10.057Z,13.33
2017-12-02T14:59:36.436Z,13.30
2017-12-02T15:02:03.133Z,14.43
2017-12-02T15:04:31.550Z,14.97
2017-12-02T15:06:57.806Z,13.80
2017-12-02T15:09:25.367Z,13.90
2017-12-02T15:11:52.350Z,16.00
2017-12-02T15:14:18.630Z,15.33
2017-12-02T15:16:44.857Z,16.13
2017-12-02T15:19:11.218Z,15.47
2017-12-02T15:21:37.586Z,16.17
2017-12-02T15:24:04.502Z,16.87
2017-12-02T15:26:30.803Z,16.30
2017-12-02T15:28:58.063Z,17.10
2017-12-02T15:31:24.572Z,16.27
2017-12-02T15:33:50.930Z,17.70
2017-12-02T15:36:17.345Z,18.10
2017-12-02T15:38:43.862Z,16.67
2017-12-02T15:41:10.422Z,16.03
2017-12-02T15:43:36.882Z,17.37
2017-12-02T15:46:03.319Z,19.20
2017-12-02T15:51:03.937Z,21.47
2017-12-02T15:53:30.249Z,20.27
2017-12-02T15:55:56.519Z,20.87
2017-12-02T15:58:23.402Z,18.07
2017-12-02T16:00:49.710Z,21.10
2017-12-02T16:03:16.082Z,21.23
2017-12-02T16:05:42.457Z,23.40
2017-12-02T16:08:08.711Z,20.63
2017-12-02T16:10:34.996Z,19.63
2017-12-02T16:13:01.978Z,22.00
2017-12-02T16:15:28.254Z,27.10
2017-12-02T16:17:54.502Z,23.03
2017-12-02T16:20:22.960Z,22.13
2017-12-02T16:22:49.326Z,22.50
2017-12-02T16:25:15.618Z,21.90
2017-12-02T16:27:41.894Z,20.70
2017-12-02T16:30:08.130Z,22.40
2017-12-02T16:32:34.377Z,21.47
2017-12-02T16:35:00.829Z,22.10
2017-12-02T16:37:27.122Z,24.37
2017-12-02T16:39:53.396Z,21.00
2017-12-02T16:42:20.434Z,19.40
2017-12-02T16:44:46.701Z,23.07
2017-12-02T16:47:12.978Z,23.93
2017-12-02T16:49:47.286Z,21.73
2017-12-02T16:52:13.569Z,20.07
2017-12-02T16:54:39.846Z,20.03
2017-12-02T16:57:06.214Z,20.43
2017-12-02T16:59:33.222Z,19.93
2017-12-02T17:01:59.593Z,20.90
2017-12-02T17:04:26.629Z,21.80
2017-12-02T17:06:53.489Z,20.87
2017-12-02T17:09:20.798Z,20.20
2017-12-02T17:11:47.125Z,20.87
2017-12-02T17:14:14.042Z,21.93
2017-12-02T17:16:40.408Z,22.03
2017-12-02T17:19:07.535Z,19.40
2017-12-02T17:21:34.742Z,20.77
2017-12-02T17:24:03.383Z,20.60
2017-12-02T17:26:30.298Z,20.97
2017-12-02T17:28:57.479Z,19.83
2017-12-02T17:31:24.455Z,21.37
2017-12-02T17:33:51.221Z,20.83
2017-12-02T17:36:17.651Z,20.77
2017-12-02T17:38:44.366Z,22.60
2017-12-02T17:41:11.607Z,20.30
2017-12-02T17:43:39.696Z,22.93
2017-12-02T17:46:06.698Z,21.90
2017-12-02T17:48:34.412Z,23.60
2017-12-02T17:51:01.401Z,22.47
2017-12-02T17:53:29.288Z,21.70
2017-12-02T17:55:55.728Z,21.83
2017-12-02T17:58:26.748Z,21.63
2017-12-02T18:00:53.378Z,21.47
2017-12-02T18:03:19.799Z,22.03
2017-12-02T18:05:46.999Z,22.00
2017-12-02T18:08:14.076Z,23.60
2017-12-02T18:10:41.161Z,22.00
2017-12-02T18:13:07.430Z,23.03
2017-12-02T18:15:33.790Z,21.40
2017-12-02T18:18:00.221Z,21.30
2017-12-02T18:20:26.516Z,22.90
2017-12-02T18:22:52.786Z,21.50
2017-12-02T18:25:19.055Z,22.33
2017-12-02T18:27:45.687Z,22.63
2017-12-02T18:30:12.089Z,24.90
2017-12-02T18:32:38.378Z,23.03
2017-12-02T18:35:05.547Z,25.23
2017-12-02T18:37:31.890Z,25.33
2017-12-02T18:39:58.207Z,23.33
2017-12-02T18:42:25.322Z,26.10
2017-12-02T18:44:51.609Z,25.33
2017-12-02T18:47:17.912Z,21.93
2017-12-02T18:49:44.939Z,23.97
2017-12-02T18:52:11.175Z,23.60
2017-12-02T18:54:38.459Z,25.33
2017-12-02T18:57:05.980Z,27.90
2017-12-02T18:59:32.261Z,27.80
2017-12-02T19:01:58.607Z,26.47
2017-12-02T19:04:25.026Z,25.93
2017-12-02T19:06:51.373Z,23.03
2017-12-02T19:09:18.578Z,25.33
2017-12-02T19:11:44.828Z,24.30
2017-12-02T19:14:11.244Z,23.40
2017-12-02T19:16:37.514Z,22.37
2017-12-02T19:19:03.854Z,24.23
2017-12-02T19:21:30.288Z,22.20
2017-12-02T19:23:56.669Z,23.30
2017-12-02T19:26:22.903Z,22.43
2017-12-02T19:28:49.146Z,24.77
2017-12-02T19:31:15.443Z,23.13
2017-12-02T19:33:41.793Z,26.50
2017-12-02T19:36:08.140Z,26.00
2017-12-02T19:38:34.393Z,24.00
2017-12-02T19:41:00.633Z,24.57
2017-12-02T19:43:27.682Z,25.90
2017-12-02T19:45:57.796Z,26.30
2017-12-02T19:48:24.149Z,25.10
2017-12-02T19:50:51.190Z,23.87
2017-12-02T19:53:21.369Z,24.60
2017-12-02T19:55:47.811Z,25.40
2017-12-02T19:58:14.197Z,23.93
2017-12-02T20:00:41.117Z,23.73
2017-12-02T20:03:11.593Z,23.80
2017-12-02T20:05:37.882Z,24.60
2017-12-02T20:08:10.566Z,24.20
2017-12-02T20:10:37.372Z,23.90
2017-12-02T20:13:03.924Z,23.40
2017-12-02T20:15:30.341Z,24.47
2017-12-02T20:17:56.711Z,25.17
2017-12-02T20:20:23.145Z,25.17
2017-12-02T20:22:49.740Z,22.70
2017-12-02T20:25:16.157Z,21.70
2017-12-02T20:27:42.462Z,23.40
2017-12-02T20:30:08.816Z,22.43
2017-12-02T20:32:35.169Z,23.37
2017-12-02T20:35:02.233Z,22.97
2017-12-02T20:37:28.620Z,20.63
2017-12-02T20:39:55.075Z,21.83
2017-12-02T20:42:22.237Z,22.20
2017-12-02T20:44:49.316Z,21.10
2017-12-02T20:47:15.701Z,23.50
2017-12-02T20:49:42.813Z,26.87
2017-12-02T20:52:09.180Z,22.50
2017-12-02T20:54:36.381Z,24.80
2017-12-02T20:57:02.756Z,22.90
2017-12-02T20:59:29.053Z,22.57
2017-12-02T21:01:55.438Z,23.47
2017-12-02T21:04:22.542Z,22.80
2017-12-02T21:06:48.941Z,23.43
2017-12-02T21:09:15.272Z,23.40
2017-12-02T21:11:41.562Z,23.40
2017-12-02T21:14:07.845Z,20.93
2017-12-02T21:16:34.178Z,22.60
2017-12-02T21:19:00.722Z,20.93
2017-12-02T21:21:27.187Z,22.37
2017-12-02T21:23:53.678Z,23.87
2017-12-02T21:26:20.022Z,22.57
2017-12-02T21:28:46.322Z,22.87
2017-12-02T21:31:12.675Z,20.73
2017-12-02T21:33:39.059Z,23.20
2017-12-02T21:36:05.593Z,22.37
2017-12-02T21:38:32.645Z,22.97
2017-12-02T21:40:59.048Z,22.83
2017-12-02T21:43:25.404Z,21.50
2017-12-02T21:45:51.809Z,21.80
2017-12-02T21:48:18.167Z,20.87
2017-12-02T21:50:44.740Z,21.23
2017-12-02T21:53:11.090Z,19.33
2017-12-02T21:55:37.475Z,21.50
2017-12-02T21:58:03.782Z,22.30
2017-12-02T22:00:30.194Z,22.53
2017-12-02T22:02:57.328Z,22.00
2017-12-02T22:05:23.681Z,22.67
2017-12-02T22:07:50.808Z,23.03
2017-12-02T22:10:17.114Z,22.77
2017-12-02T22:12:43.581Z,20.90
2017-12-02T22:15:10.152Z,24.07
2017-12-02T22:17:36.468Z,22.30
2017-12-02T22:20:04.756Z,21.17
2017-12-02T22:22:32.101Z,23.00
2017-12-02T22:24:58.519Z,22.37
2017-12-02T22:27:24.842Z,22.17
2017-12-02T22:29:51.954Z,22.60
2017-12-02T22:32:18.306Z,20.70
2017-12-02T22:34:44.647Z,21.03
2017-12-02T22:37:10.999Z,21.17
2017-12-02T22:39:37.331Z,22.43
2017-12-02T22:42:04.454Z,22.10
2017-12-02T22:44:30.893Z,22.40
2017-12-02T22:46:57.217Z,21.40
2017-12-02T22:49:23.626Z,21.07
2017-12-02T22:51:49.990Z,22.93
2017-12-02T22:54:16.263Z,24.10
2017-12-02T22:56:43.260Z,22.93
2017-12-02T22:59:10.579Z,23.10
2017-12-02T23:01:36.930Z,21.93
2017-12-02T23:04:03.416Z,21.90
2017-12-02T23:06:30.522Z,22.43
2017-12-02T23:08:56.821Z,21.10
2017-12-02T23:11:23.095Z,23.03
2017-12-02T23:13:49.374Z,23.20
2017-12-02T23:16:15.692Z,22.20
2017-12-02T23:18:41.970Z,21.43
2017-12-02T23:21:08.243Z,22.40
2017-12-02T23:23:35.225Z,21.97
2017-12-02T23:26:01.551Z,22.67
2017-12-02T23:28:34.878Z,22.30
2017-12-02T23:31:01.142Z,24.43
2017-12-02T23:33:28.129Z,22.50
2017-12-02T23:35:54.410Z,23.87
2017-12-02T23:38:21.413Z,23.10
2017-12-02T23:40:47.653Z,22.97
2017-12-02T23:43:13.949Z,25.00
2017-12-02T23:45:40.246Z,25.17
2017-12-02T23:48:07.224Z,25.10
2017-12-02T23:50:33.554Z,22.77
2017-12-02T23:52:59.827Z,22.90
2017-12-02T23:55:26.091Z,23.80
2017-12-02T23:57:52.306Z,24.37
